createdAt,value
2022-08-12T00:02:02.069Z,63.20
2022-08-12T00:06:04.141Z,65.40
2022-08-12T00:10:05.896Z,65.80
2022-08-12T00:14:06.453Z,67.00
2022-08-12T00:18:07.244Z,65.40
2022-08-12T00:22:08.037Z,66.00
2022-08-12T00:26:23.597Z,64.70
2022-08-12T00:30:25.485Z,66.30
2022-08-12T00:34:26.269Z,66.60
2022-08-12T00:38:27.216Z,67.20
2022-08-12T00:42:13.208Z,67.70
2022-08-12T00:46:14.783Z,68.80
2022-08-12T00:49:57.179Z,68.10
2022-08-12T00:53:39.936Z,68.90
2022-08-12T00:57:27.528Z,67.80
2022-08-12T01:01:09.593Z,69.60
2022-08-12T01:05:31.015Z,69.70
2022-08-12T01:09:33.547Z,66.60
2022-08-12T01:13:19.314Z,69.10
2022-08-12T01:17:02.216Z,69.90
2022-08-12T01:20:52.249Z,69.20
2022-08-12T01:25:01.493Z,69.40
2022-08-12T01:28:46.626Z,68.00
2022-08-12T01:32:30.871Z,69.00
2022-08-12T01:36:17.664Z,69.80
2022-08-12T01:40:33.832Z,71.60
2022-08-12T01:44:04.099Z,71.40
2022-08-12T01:48:13.803Z,71.90
2022-08-12T01:52:21.045Z,69.90
2022-08-12T01:56:04.833Z,71.80
2022-08-12T02:00:00.001Z,73.20
2022-08-12T02:04:22.416Z,73.20
2022-08-12T02:08:41.492Z,71.60
2022-08-12T02:12:47.819Z,72.90
2022-08-12T02:16:30.505Z,71.80
2022-08-12T02:20:22.033Z,74.20
2022-08-12T02:24:06.529Z,74.70
2022-08-12T02:27:50.995Z,74.40
2022-08-12T02:31:33.088Z,76.00
2022-08-12T02:35:25.995Z,76.40
2022-08-12T02:39:15.715Z,74.70
2022-08-12T02:43:19.896Z,74.60
2022-08-12T02:47:06.394Z,74.50
2022-08-12T02:50:52.551Z,75.60
2022-08-12T02:54:35.901Z,75.20
2022-08-12T02:58:19.798Z,77.80
2022-08-12T03:02:03.866Z,78.30
2022-08-12T03:05:58.625Z,79.80
2022-08-12T03:10:13.051Z,78.80
2022-08-12T03:14:02.190Z,79.50
2022-08-12T03:17:44.051Z,80.30
2022-08-12T03:22:05.808Z,81.00
2022-08-12T03:25:29.705Z,81.20
2022-08-12T03:29:12.572Z,81.20
2022-08-12T03:32:56.868Z,81.90
2022-08-12T03:36:41.337Z,82.30
2022-08-12T03:40:48.659Z,81.90
2022-08-12T03:44:56.753Z,83.20
2022-08-12T03:48:59.924Z,82.70
2022-08-12T03:53:00.268Z,84.20
2022-08-12T03:57:00.925Z,85.40
2022-08-12T04:00:43.197Z,85.50
2022-08-12T04:04:26.247Z,86.30
2022-08-12T04:08:10.433Z,86.60
2022-08-12T04:12:11.121Z,87.70
2022-08-12T04:15:54.169Z,88.00
2022-08-12T04:19:37.498Z,87.80
2022-08-12T04:23:20.275Z,87.20
2022-08-12T04:27:05.494Z,87.90
2022-08-12T04:30:47.620Z,87.80
2022-08-12T04:34:29.662Z,88.10
2022-08-12T04:38:12.699Z,88.30
2022-08-12T04:41:58.418Z,88.50
2022-08-12T04:45:41.139Z,87.50
2022-08-12T04:49:24.334Z,86.90
2022-08-12T04:53:09.143Z,87.30
2022-08-12T04:57:04.234Z,86.40
2022-08-12T05:00:46.836Z,88.90
2022-08-12T05:04:29.401Z,89.60
2022-08-12T05:08:16.671Z,89.40
2022-08-12T05:11:59.345Z,87.10
2022-08-12T05:16:03.878Z,88.70
2022-08-12T05:19:51.288Z,89.10
2022-08-12T05:23:37.676Z,88.80
2022-08-12T05:27:22.681Z,88.70
2022-08-12T05:31:07.179Z,89.40
2022-08-12T05:34:50.228Z,88.70
2022-08-12T05:43:04.491Z,88.60
2022-08-12T05:46:56.106Z,87.50
2022-08-12T05:50:38.667Z,86.60
2022-08-12T05:54:31.034Z,88.80
2022-08-12T05:58:25.302Z,86.60
2022-08-12T06:02:14.868Z,86.50
2022-08-12T06:06:04.700Z,85.50
2022-08-12T06:09:46.985Z,85.80
2022-08-12T06:13:52.718Z,84.50
2022-08-12T06:17:34.316Z,83.20
2022-08-12T06:21:24.007Z,81.80
2022-08-12T06:25:18.387Z,79.40
2022-08-12T06:30:09.626Z,77.70
2022-08-12T06:35:25.658Z,75.90
2022-08-12T06:38:39.682Z,72.90
2022-08-12T06:42:50.219Z,70.20
2022-08-12T06:46:39.558Z,67.20
2022-08-12T06:50:22.085Z,64.00
2022-08-12T06:54:05.285Z,59.80
2022-08-12T06:58:01.839Z,58.60
2022-08-12T07:01:57.062Z,57.10
2022-08-12T07:05:43.635Z,57.30
2022-08-12T07:10:03.873Z,54.70
2022-08-12T07:14:11.148Z,52.60
2022-08-12T07:17:45.718Z,51.80
2022-08-12T07:21:59.824Z,49.20
2022-08-12T07:26:01.965Z,47.80
2022-08-12T07:30:04.227Z,46.30
2022-08-12T07:33:56.604Z,44.70
2022-08-12T07:37:59.577Z,44.50
2022-08-12T07:41:50.185Z,43.50
2022-08-12T07:45:32.116Z,43.80
2022-08-12T07:49:18.293Z,41.50
2022-08-12T07:53:07.295Z,42.00
2022-08-12T07:56:49.582Z,41.90
2022-08-12T08:04:58.166Z,39.80
2022-08-12T08:13:22.157Z,41.60
2022-08-12T08:17:04.983Z,38.30
2022-08-12T08:20:47.833Z,36.20
2022-08-12T08:24:38.575Z,35.50
2022-08-12T08:28:21.483Z,36.80
2022-08-12T08:36:16.336Z,33.70
2022-08-12T08:40:38.209Z,32.90
2022-08-12T08:44:27.394Z,33.50
2022-08-12T08:48:18.602Z,33.20
2022-08-12T08:52:00.695Z,33.90
2022-08-12T08:56:04.009Z,31.80
2022-08-12T08:59:51.714Z,31.40
2022-08-12T09:04:21.417Z,31.10
2022-08-12T09:07:59.087Z,31.20
2022-08-12T09:20:03.922Z,33.20
2022-08-12T09:32:57.117Z,33.70
2022-08-12T09:42:35.023Z,31.50
2022-08-12T09:46:06.382Z,34.10
2022-08-12T09:50:55.591Z,33.00
2022-08-12T09:55:02.302Z,32.40
2022-08-12T09:58:59.774Z,30.80
2022-08-12T10:03:32.161Z,31.00
2022-08-12T10:07:25.029Z,31.50
2022-08-12T10:16:22.709Z,30.30
2022-08-12T10:20:12.143Z,32.20
2022-08-12T10:24:20.341Z,31.30
2022-08-12T10:32:44.373Z,30.10
2022-08-12T10:36:43.136Z,31.40
2022-08-12T10:40:32.318Z,30.10
2022-08-12T10:44:33.868Z,29.90
2022-08-12T10:48:33.362Z,30.00
2022-08-12T10:57:00.755Z,30.60
2022-08-12T11:00:55.205Z,31.80
2022-08-12T11:04:51.259Z,33.80
2022-08-12T11:08:43.021Z,34.20
2022-08-12T11:12:59.076Z,33.20
2022-08-12T11:17:51.990Z,32.80
2022-08-12T11:21:57.156Z,33.80
2022-08-12T11:26:08.404Z,33.30
2022-08-12T11:30:01.959Z,34.60
2022-08-12T11:34:51.314Z,34.40
2022-08-12T11:38:31.632Z,33.50
2022-08-12T11:42:32.144Z,33.40
2022-08-12T11:46:30.569Z,34.40
2022-08-12T11:50:19.175Z,34.60
2022-08-12T11:54:19.876Z,34.20
2022-08-12T11:59:08.426Z,34.50
2022-08-12T12:02:20.133Z,34.10
2022-08-12T12:06:03.526Z,34.10
2022-08-12T12:10:07.489Z,34.70
2022-08-12T12:14:08.817Z,34.30
2022-08-12T12:18:02.633Z,34.40
2022-08-12T12:21:50.537Z,34.40
2022-08-12T12:26:06.451Z,34.60
2022-08-12T12:30:54.629Z,35.50
2022-08-12T12:36:06.547Z,35.10
2022-08-12T12:39:29.490Z,35.40
2022-08-12T12:44:04.141Z,35.30
2022-08-12T12:52:54.885Z,35.30
2022-08-12T12:56:50.095Z,36.10
2022-08-12T13:00:57.658Z,35.40
2022-08-12T13:04:40.843Z,35.00
2022-08-12T13:08:39.471Z,34.90
2022-08-12T13:12:34.053Z,35.40
2022-08-12T13:16:36.916Z,35.70
2022-08-12T13:20:38.475Z,34.80
2022-08-12T13:24:31.745Z,34.80
2022-08-12T13:28:22.195Z,35.50
2022-08-12T13:32:31.469Z,35.40
2022-08-12T13:36:57.089Z,35.30
2022-08-12T13:40:46.207Z,35.60
2022-08-12T13:44:46.501Z,35.00
2022-08-12T13:48:37.077Z,35.00
2022-08-12T13:52:35.254Z,35.10
2022-08-12T13:56:34.451Z,35.10
2022-08-12T14:00:40.976Z,35.40
2022-08-12T14:04:59.352Z,34.70
2022-08-12T14:08:52.447Z,36.00
2022-08-12T14:12:54.608Z,35.20
2022-08-12T14:16:49.149Z,34.90
2022-08-12T14:20:51.789Z,35.10
2022-08-12T14:24:40.432Z,34.70
2022-08-12T14:29:07.364Z,34.70
2022-08-12T14:33:15.443Z,34.90
2022-08-12T14:37:02.935Z,34.40
2022-08-12T14:41:09.141Z,34.00
2022-08-12T14:48:59.032Z,33.40
2022-08-12T14:54:55.837Z,33.90
2022-08-12T14:58:02.545Z,34.40
2022-08-12T15:01:48.099Z,34.20
2022-08-12T15:06:04.932Z,34.70
2022-08-12T15:10:32.104Z,34.20
2022-08-12T15:14:53.849Z,34.60
2022-08-12T15:18:55.124Z,34.60
2022-08-12T15:22:53.683Z,35.00
2022-08-12T15:31:21.616Z,34.30
2022-08-12T15:35:14.921Z,34.80
2022-08-12T15:38:59.208Z,34.50
2022-08-12T15:44:15.900Z,34.50
2022-08-12T15:47:49.561Z,35.30
2022-08-12T15:52:05.288Z,34.50
2022-08-12T15:55:54.916Z,34.70
2022-08-12T16:00:06.690Z,34.10
2022-08-12T16:04:53.560Z,34.80
2022-08-12T16:08:58.447Z,35.10
2022-08-12T16:12:54.828Z,34.70
2022-08-12T16:16:51.523Z,34.50
2022-08-12T16:20:38.264Z,34.00
2022-08-12T16:28:33.015Z,34.50
2022-08-12T16:32:38.106Z,34.80
2022-08-12T16:36:27.134Z,34.80
2022-08-12T16:40:28.239Z,34.50
2022-08-12T16:44:19.455Z,34.70
2022-08-12T16:48:34.745Z,34.80
2022-08-12T16:52:50.335Z,35.10
2022-08-12T16:56:54.654Z,35.30
2022-08-12T17:00:50.420Z,35.30
2022-08-12T17:04:38.298Z,35.00
2022-08-12T17:08:49.143Z,35.30
2022-08-12T17:13:36.928Z,35.40
2022-08-12T17:17:42.249Z,35.30
2022-08-12T17:21:40.662Z,35.10
2022-08-12T17:25:36.050Z,35.50
2022-08-12T17:29:32.203Z,35.50
2022-08-12T17:33:33.301Z,35.40
2022-08-12T17:38:23.117Z,35.90
2022-08-12T17:42:32.626Z,35.80
2022-08-12T17:50:22.236Z,36.30
2022-08-12T17:55:40.427Z,36.20
2022-08-12T18:03:58.209Z,36.60
2022-08-12T18:08:22.745Z,37.00
2022-08-12T18:29:04.522Z,38.00
2022-08-12T18:33:12.156Z,38.70
2022-08-12T18:37:26.889Z,38.70
2022-08-12T18:41:26.971Z,40.20
2022-08-12T18:45:46.899Z,39.90
2022-08-12T18:50:28.076Z,39.30
2022-08-12T18:55:02.602Z,39.40
2022-08-12T18:59:10.544Z,40.00
2022-08-12T19:07:24.768Z,40.10
2022-08-12T19:11:52.589Z,41.00
2022-08-12T19:16:01.444Z,40.70
2022-08-12T19:19:47.017Z,40.30
2022-08-12T19:24:15.349Z,41.60
2022-08-12T19:28:29.365Z,41.40
2022-08-12T19:33:17.158Z,42.30
2022-08-12T19:37:38.626Z,41.70
2022-08-12T19:42:19.131Z,41.60
2022-08-12T19:46:27.921Z,42.00
2022-08-12T19:50:19.998Z,43.40
2022-08-12T19:54:03.605Z,44.10
2022-08-12T19:58:02.866Z,46.00
2022-08-12T20:02:03.426Z,44.70
2022-08-12T20:06:07.185Z,45.30
2022-08-12T20:09:51.376Z,46.10
2022-08-12T20:13:37.429Z,45.60
2022-08-12T20:17:23.636Z,45.50
2022-08-12T20:21:15.000Z,45.70
2022-08-12T20:25:09.087Z,46.20
2022-08-12T20:28:51.200Z,46.10
2022-08-12T20:32:47.713Z,47.00
2022-08-12T20:36:42.389Z,47.50
2022-08-12T20:40:25.160Z,47.30
2022-08-12T20:44:07.744Z,47.30
2022-08-12T20:48:04.590Z,48.20
2022-08-12T20:51:54.718Z,48.30
2022-08-12T20:55:45.111Z,48.90
2022-08-12T20:59:47.746Z,48.50
2022-08-12T21:03:52.477Z,48.70
2022-08-12T21:07:40.823Z,49.40
2022-08-12T21:11:30.411Z,49.70
2022-08-12T21:15:23.139Z,50.00
2022-08-12T21:19:08.052Z,50.10
2022-08-12T21:22:50.297Z,50.60
2022-08-12T21:26:34.813Z,50.80
2022-08-12T21:30:21.880Z,51.00
2022-08-12T21:34:09.711Z,51.50
2022-08-12T21:37:53.119Z,52.10
2022-08-12T21:41:36.224Z,52.50
2022-08-12T21:45:46.867Z,52.70
2022-08-12T21:49:54.079Z,53.50
2022-08-12T21:54:06.210Z,52.80
2022-08-12T21:57:26.089Z,53.30
2022-08-12T22:01:10.395Z,53.40
2022-08-12T22:05:42.014Z,53.60
2022-08-12T22:09:28.699Z,53.60
2022-08-12T22:14:07.455Z,53.30
2022-08-12T22:17:12.832Z,52.70
2022-08-12T22:21:02.247Z,53.80
2022-08-12T22:24:45.618Z,54.30
2022-08-12T22:28:45.809Z,54.40
2022-08-12T22:32:29.993Z,53.50
2022-08-12T22:36:17.794Z,54.80
2022-08-12T22:40:03.401Z,56.00
2022-08-12T22:44:05.919Z,55.50
2022-08-12T22:47:55.052Z,54.90
2022-08-12T22:51:59.806Z,54.80
2022-08-12T22:56:00.743Z,55.00
2022-08-12T22:59:55.636Z,55.10
2022-08-12T23:03:48.892Z,55.80
2022-08-12T23:07:36.447Z,56.20
2022-08-12T23:11:40.583Z,56.10
2022-08-12T23:15:22.820Z,55.30
2022-08-12T23:19:10.291Z,55.00
2022-08-12T23:23:03.199Z,56.40
2022-08-12T23:27:08.382Z,55.30
2022-08-12T23:30:50.343Z,54.80
2022-08-12T23:34:37.210Z,56.80
2022-08-12T23:38:31.382Z,56.70
2022-08-12T23:42:18.269Z,57.20
2022-08-12T23:46:08.818Z,57.70
2022-08-12T23:49:56.998Z,57.00
2022-08-12T23:53:44.819Z,58.60
2022-08-12T23:57:28.375Z,57.10
